sensor_id;sensor_type;location;lat;lon;timestamp;temperature;humidity
66271;DHT22;53063;39.614;8.814;2023-04-24T00:01:48;15.60;99.90
66271;DHT22;53063;39.614;8.814;2023-04-24T00:04:14;15.70;99.90
66271;DHT22;53063;39.614;8.814;2023-04-24T00:06:42;15.70;99.90
66271;DHT22;53063;39.614;8.814;2023-04-24T00:09:09;15.70;99.90
66271;DHT22;53063;39.614;8.814;2023-04-24T00:11:36;15.60;99.90
66271;DHT22;53063;39.614;8.814;2023-04-24T00:14:02;15.60;99.90
66271;DHT22;53063;39.614;8.814;2023-04-24T00:16:28;15.50;99.90
66271;DHT22;53063;39.614;8.814;2023-04-24T00:18:54;15.60;99.90
66271;DHT22;53063;39.614;8.814;2023-04-24T00:21:20;15.50;99.90
66271;DHT22;53063;39.614;8.814;2023-04-24T00:23:47;15.50;99.90
66271;DHT22;53063;39.614;8.814;2023-04-24T00:26:13;15.60;99.90
66271;DHT22;53063;39.614;8.814;2023-04-24T00:28:39;15.60;99.90
66271;DHT22;53063;39.614;8.814;2023-04-24T00:31:05;15.50;99.90
66271;DHT22;53063;39.614;8.814;2023-04-24T00:33:31;15.40;99.90
66271;DHT22;53063;39.614;8.814;2023-04-24T00:35:57;15.50;99.90
66271;DHT22;53063;39.614;8.814;2023-04-24T00:38:23;15.50;99.90
66271;DHT22;53063;39.614;8.814;2023-04-24T00:40:50;15.50;99.90
66271;DHT22;53063;39.614;8.814;2023-04-24T00:43:16;15.50;99.90
66271;DHT22;53063;39.614;8.814;2023-04-24T00:45:43;15.50;99.90
66271;DHT22;53063;39.614;8.814;2023-04-24T00:48:09;15.40;99.90
66271;DHT22;53063;39.614;8.814;2023-04-24T00:50:36;15.40;99.90
66271;DHT22;53063;39.614;8.814;2023-04-24T00:53:02;15.50;99.90
66271;DHT22;53063;39.614;8.814;2023-04-24T00:55:28;15.50;99.90
66271;DHT22;53063;39.614;8.814;2023-04-24T00:57:54;15.50;99.90
66271;DHT22;53063;39.614;8.814;2023-04-24T01:00:21;15.50;99.90
66271;DHT22;53063;39.614;8.814;2023-04-24T01:02:48;15.50;99.90
66271;DHT22;53063;39.614;8.814;2023-04-24T01:05:15;15.50;99.90
66271;DHT22;53063;39.614;8.814;2023-04-24T01:07:44;15.50;99.90
66271;DHT22;53063;39.614;8.814;2023-04-24T01:10:11;15.50;99.90
66271;DHT22;53063;39.614;8.814;2023-04-24T01:12:38;15.50;99.90
66271;DHT22;53063;39.614;8.814;2023-04-24T01:15:05;15.50;99.90
66271;DHT22;53063;39.614;8.814;2023-04-24T01:17:32;15.40;99.90
66271;DHT22;53063;39.614;8.814;2023-04-24T01:19:59;15.30;99.90
66271;DHT22;53063;39.614;8.814;2023-04-24T01:22:26;15.20;99.90
66271;DHT22;53063;39.614;8.814;2023-04-24T01:24:53;15.10;99.90
66271;DHT22;53063;39.614;8.814;2023-04-24T01:27:19;15.20;99.90
66271;DHT22;53063;39.614;8.814;2023-04-24T01:29:46;15.10;99.90
66271;DHT22;53063;39.614;8.814;2023-04-24T01:32:15;15.10;99.90
66271;DHT22;53063;39.614;8.814;2023-04-24T01:34:41;15.10;99.90
66271;DHT22;53063;39.614;8.814;2023-04-24T01:37:07;15.20;99.90
66271;DHT22;53063;39.614;8.814;2023-04-24T01:39:33;15.20;99.90
66271;DHT22;53063;39.614;8.814;2023-04-24T01:42:00;15.30;99.90
66271;DHT22;53063;39.614;8.814;2023-04-24T01:44:28;15.40;99.90
66271;DHT22;53063;39.614;8.814;2023-04-24T01:46:55;15.30;99.90
66271;DHT22;53063;39.614;8.814;2023-04-24T01:49:21;15.40;99.90
66271;DHT22;53063;39.614;8.814;2023-04-24T01:51:47;15.30;99.90
66271;DHT22;53063;39.614;8.814;2023-04-24T01:54:13;15.30;99.90
66271;DHT22;53063;39.614;8.814;2023-04-24T01:56:42;15.30;99.90
66271;DHT22;53063;39.614;8.814;2023-04-24T01:59:10;15.30;99.90
66271;DHT22;53063;39.614;8.814;2023-04-24T02:01:38;15.30;99.90
66271;DHT22;53063;39.614;8.814;2023-04-24T02:04:05;15.40;99.90
66271;DHT22;53063;39.614;8.814;2023-04-24T02:06:31;15.40;99.90
66271;DHT22;53063;39.614;8.814;2023-04-24T02:09:00;15.40;99.90
66271;DHT22;53063;39.614;8.814;2023-04-24T02:11:27;15.40;99.90
66271;DHT22;53063;39.614;8.814;2023-04-24T02:13:53;15.40;99.90
66271;DHT22;53063;39.614;8.814;2023-04-24T02:16:19;15.40;99.90
66271;DHT22;53063;39.614;8.814;2023-04-24T02:18:45;15.30;99.90
66271;DHT22;53063;39.614;8.814;2023-04-24T02:21:11;15.40;99.90
66271;DHT22;53063;39.614;8.814;2023-04-24T02:23:37;15.40;99.90
66271;DHT22;53063;39.614;8.814;2023-04-24T02:26:04;15.40;99.90
66271;DHT22;53063;39.614;8.814;2023-04-24T02:28:30;15.40;99.90
66271;DHT22;53063;39.614;8.814;2023-04-24T02:30:56;15.50;99.90
66271;DHT22;53063;39.614;8.814;2023-04-24T02:33:22;15.50;99.90
66271;DHT22;53063;39.614;8.814;2023-04-24T02:35:48;15.40;99.90
66271;DHT22;53063;39.614;8.814;2023-04-24T02:38:14;15.30;99.90
66271;DHT22;53063;39.614;8.814;2023-04-24T02:40:43;15.30;99.90
66271;DHT22;53063;39.614;8.814;2023-04-24T02:43:09;15.20;99.90
66271;DHT22;53063;39.614;8.814;2023-04-24T02:45:36;15.20;99.90
66271;DHT22;53063;39.614;8.814;2023-04-24T02:48:03;15.20;99.90
66271;DHT22;53063;39.614;8.814;2023-04-24T02:50:29;15.20;99.90
66271;DHT22;53063;39.614;8.814;2023-04-24T02:52:55;15.20;99.90
66271;DHT22;53063;39.614;8.814;2023-04-24T02:55:21;15.20;99.90
66271;DHT22;53063;39.614;8.814;2023-04-24T02:57:47;15.10;99.90
66271;DHT22;53063;39.614;8.814;2023-04-24T03:00:13;15.10;99.90
66271;DHT22;53063;39.614;8.814;2023-04-24T03:02:39;15.10;99.90
66271;DHT22;53063;39.614;8.814;2023-04-24T03:05:06;15.20;99.90
66271;DHT22;53063;39.614;8.814;2023-04-24T03:07:33;15.20;99.90
66271;DHT22;53063;39.614;8.814;2023-04-24T03:09:59;15.20;99.90
66271;DHT22;53063;39.614;8.814;2023-04-24T03:12:26;15.20;99.90
66271;DHT22;53063;39.614;8.814;2023-04-24T03:14:52;15.20;99.90
66271;DHT22;53063;39.614;8.814;2023-04-24T03:17:18;15.30;99.90
66271;DHT22;53063;39.614;8.814;2023-04-24T03:19:44;15.30;99.90
66271;DHT22;53063;39.614;8.814;2023-04-24T03:22:12;15.30;99.90
66271;DHT22;53063;39.614;8.814;2023-04-24T03:24:39;15.30;99.90
66271;DHT22;53063;39.614;8.814;2023-04-24T03:27:06;15.30;99.90
66271;DHT22;53063;39.614;8.814;2023-04-24T03:29:54;15.30;99.90
66271;DHT22;53063;39.614;8.814;2023-04-24T03:32:25;15.30;99.90
66271;DHT22;53063;39.614;8.814;2023-04-24T03:34:51;15.40;99.90
66271;DHT22;53063;39.614;8.814;2023-04-24T03:37:17;15.40;99.90
66271;DHT22;53063;39.614;8.814;2023-04-24T03:39:51;15.40;99.90
66271;DHT22;53063;39.614;8.814;2023-04-24T03:42:21;15.40;99.90
66271;DHT22;53063;39.614;8.814;2023-04-24T03:44:51;15.30;99.90
66271;DHT22;53063;39.614;8.814;2023-04-24T03:47:21;15.30;99.90
66271;DHT22;53063;39.614;8.814;2023-04-24T03:49:48;15.20;99.90
66271;DHT22;53063;39.614;8.814;2023-04-24T03:52:14;15.10;99.90
66271;DHT22;53063;39.614;8.814;2023-04-24T03:54:40;15.00;99.90
66271;DHT22;53063;39.614;8.814;2023-04-24T03:57:06;14.90;99.90
66271;DHT22;53063;39.614;8.814;2023-04-24T03:59:34;14.70;99.90
66271;DHT22;53063;39.614;8.814;2023-04-24T04:02:10;14.70;99.90
66271;DHT22;53063;39.614;8.814;2023-04-24T04:04:36;14.70;99.90
66271;DHT22;53063;39.614;8.814;2023-04-24T04:07:02;14.60;99.90
66271;DHT22;53063;39.614;8.814;2023-04-24T04:09:30;14.60;99.90
66271;DHT22;53063;39.614;8.814;2023-04-24T04:11:56;14.50;99.90
66271;DHT22;53063;39.614;8.814;2023-04-24T04:14:22;14.50;99.90
66271;DHT22;53063;39.614;8.814;2023-04-24T04:16:48;14.60;99.90
66271;DHT22;53063;39.614;8.814;2023-04-24T04:19:15;14.60;99.90
66271;DHT22;53063;39.614;8.814;2023-04-24T04:21:41;14.70;99.90
66271;DHT22;53063;39.614;8.814;2023-04-24T04:24:19;14.70;99.90
66271;DHT22;53063;39.614;8.814;2023-04-24T04:26:50;14.80;99.90
66271;DHT22;53063;39.614;8.814;2023-04-24T04:29:23;14.80;99.90
66271;DHT22;53063;39.614;8.814;2023-04-24T04:31:50;14.70;99.90
66271;DHT22;53063;39.614;8.814;2023-04-24T04:34:16;14.70;99.90
66271;DHT22;53063;39.614;8.814;2023-04-24T04:36:43;14.80;99.90
66271;DHT22;53063;39.614;8.814;2023-04-24T04:39:39;14.80;99.90
66271;DHT22;53063;39.614;8.814;2023-04-24T04:42:08;14.90;99.90
66271;DHT22;53063;39.614;8.814;2023-04-24T04:44:40;14.90;99.90
66271;DHT22;53063;39.614;8.814;2023-04-24T04:47:08;15.00;99.90
66271;DHT22;53063;39.614;8.814;2023-04-24T04:49:40;15.10;99.90
66271;DHT22;53063;39.614;8.814;2023-04-24T04:52:16;15.10;99.90
66271;DHT22;53063;39.614;8.814;2023-04-24T04:54:44;15.10;99.90
66271;DHT22;53063;39.614;8.814;2023-04-24T04:57:12;15.10;99.90
66271;DHT22;53063;39.614;8.814;2023-04-24T04:59:38;15.10;99.90
66271;DHT22;53063;39.614;8.814;2023-04-24T05:02:10;15.20;99.90
66271;DHT22;53063;39.614;8.814;2023-04-24T05:04:36;15.20;99.90
66271;DHT22;53063;39.614;8.814;2023-04-24T05:07:02;15.10;99.90
66271;DHT22;53063;39.614;8.814;2023-04-24T05:09:31;15.10;99.90
66271;DHT22;53063;39.614;8.814;2023-04-24T05:12:02;14.90;99.90
66271;DHT22;53063;39.614;8.814;2023-04-24T05:14:31;14.90;99.90
66271;DHT22;53063;39.614;8.814;2023-04-24T05:16:57;14.90;99.90
66271;DHT22;53063;39.614;8.814;2023-04-24T05:19:25;14.90;99.90
66271;DHT22;53063;39.614;8.814;2023-04-24T05:21:51;14.90;99.90
66271;DHT22;53063;39.614;8.814;2023-04-24T05:24:17;14.90;99.90
66271;DHT22;53063;39.614;8.814;2023-04-24T05:26:43;15.00;99.90
66271;DHT22;53063;39.614;8.814;2023-04-24T05:29:10;15.00;99.90
66271;DHT22;53063;39.614;8.814;2023-04-24T05:31:37;15.10;99.90
66271;DHT22;53063;39.614;8.814;2023-04-24T05:34:03;15.20;99.90
66271;DHT22;53063;39.614;8.814;2023-04-24T05:36:29;15.30;99.90
66271;DHT22;53063;39.614;8.814;2023-04-24T05:38:56;15.40;99.90
66271;DHT22;53063;39.614;8.814;2023-04-24T05:41:22;15.50;99.90
66271;DHT22;53063;39.614;8.814;2023-04-24T05:43:48;15.60;99.90
66271;DHT22;53063;39.614;8.814;2023-04-24T05:46:14;15.90;99.90
66271;DHT22;53063;39.614;8.814;2023-04-24T05:48:40;16.30;99.90
66271;DHT22;53063;39.614;8.814;2023-04-24T05:51:06;16.50;99.90
66271;DHT22;53063;39.614;8.814;2023-04-24T05:53:31;16.50;99.90
66271;DHT22;53063;39.614;8.814;2023-04-24T05:55:57;16.50;99.90
66271;DHT22;53063;39.614;8.814;2023-04-24T05:58:24;16.50;99.90
66271;DHT22;53063;39.614;8.814;2023-04-24T06:00:50;16.70;99.90
66271;DHT22;53063;39.614;8.814;2023-04-24T06:03:17;17.00;99.90
66271;DHT22;53063;39.614;8.814;2023-04-24T06:05:42;17.20;99.90
66271;DHT22;53063;39.614;8.814;2023-04-24T06:08:09;17.20;99.90
66271;DHT22;53063;39.614;8.814;2023-04-24T06:10:38;17.00;99.90
66271;DHT22;53063;39.614;8.814;2023-04-24T06:13:06;17.00;99.90
66271;DHT22;53063;39.614;8.814;2023-04-24T06:15:34;17.30;99.90
66271;DHT22;53063;39.614;8.814;2023-04-24T06:18:05;18.50;99.90
66271;DHT22;53063;39.614;8.814;2023-04-24T06:20:32;19.50;98.50
66271;DHT22;53063;39.614;8.814;2023-04-24T06:22:58;20.50;90.60
66271;DHT22;53063;39.614;8.814;2023-04-24T06:25:25;20.90;86.50
66271;DHT22;53063;39.614;8.814;2023-04-24T06:27:52;21.00;84.00
66271;DHT22;53063;39.614;8.814;2023-04-24T06:30:18;21.00;84.10
66271;DHT22;53063;39.614;8.814;2023-04-24T06:32:44;21.10;83.40
66271;DHT22;53063;39.614;8.814;2023-04-24T06:35:10;21.30;82.00
66271;DHT22;53063;39.614;8.814;2023-04-24T06:37:39;21.60;79.20
66271;DHT22;53063;39.614;8.814;2023-04-24T06:40:06;21.40;80.80
66271;DHT22;53063;39.614;8.814;2023-04-24T06:42:32;21.80;80.10
66271;DHT22;53063;39.614;8.814;2023-04-24T06:44:59;22.00;79.30
66271;DHT22;53063;39.614;8.814;2023-04-24T06:47:25;22.30;77.60
66271;DHT22;53063;39.614;8.814;2023-04-24T06:49:50;22.40;76.60
66271;DHT22;53063;39.614;8.814;2023-04-24T06:52:18;21.60;76.10
66271;DHT22;53063;39.614;8.814;2023-04-24T06:54:44;22.10;79.00
66271;DHT22;53063;39.614;8.814;2023-04-24T06:57:10;21.30;80.90
66271;DHT22;53063;39.614;8.814;2023-04-24T06:59:37;19.70;82.10
66271;DHT22;53063;39.614;8.814;2023-04-24T07:02:03;18.70;88.30
66271;DHT22;53063;39.614;8.814;2023-04-24T07:04:29;18.50;92.10
66271;DHT22;53063;39.614;8.814;2023-04-24T07:06:55;18.70;92.70
66271;DHT22;53063;39.614;8.814;2023-04-24T07:09:24;18.60;94.60
66271;DHT22;53063;39.614;8.814;2023-04-24T07:11:51;18.30;95.80
66271;DHT22;53063;39.614;8.814;2023-04-24T07:14:17;17.90;96.40
66271;DHT22;53063;39.614;8.814;2023-04-24T07:16:43;17.80;97.50
66271;DHT22;53063;39.614;8.814;2023-04-24T07:19:09;17.80;98.40
66271;DHT22;53063;39.614;8.814;2023-04-24T07:21:35;17.90;99.10
66271;DHT22;53063;39.614;8.814;2023-04-24T07:24:01;17.90;98.20
66271;DHT22;53063;39.614;8.814;2023-04-24T07:26:29;17.80;99.10
66271;DHT22;53063;39.614;8.814;2023-04-24T07:28:55;20.00;89.90
66271;DHT22;53063;39.614;8.814;2023-04-24T07:31:21;18.90;90.70
66271;DHT22;53063;39.614;8.814;2023-04-24T07:33:47;19.20;89.00
66271;DHT22;53063;39.614;8.814;2023-04-24T07:36:13;19.20;89.00
66271;DHT22;53063;39.614;8.814;2023-04-24T07:38:43;19.20;91.40
66271;DHT22;53063;39.614;8.814;2023-04-24T07:41:08;19.50;88.40
66271;DHT22;53063;39.614;8.814;2023-04-24T07:43:35;18.80;90.00
66271;DHT22;53063;39.614;8.814;2023-04-24T07:46:01;18.90;90.40
66271;DHT22;53063;39.614;8.814;2023-04-24T07:48:27;19.80;89.40
66271;DHT22;53063;39.614;8.814;2023-04-24T07:50:53;19.70;85.70
66271;DHT22;53063;39.614;8.814;2023-04-24T07:53:19;19.70;85.60
66271;DHT22;53063;39.614;8.814;2023-04-24T07:55:46;20.60;84.10
66271;DHT22;53063;39.614;8.814;2023-04-24T07:58:12;21.00;80.20
66271;DHT22;53063;39.614;8.814;2023-04-24T08:00:38;21.40;77.70
66271;DHT22;53063;39.614;8.814;2023-04-24T08:03:04;21.50;75.60
66271;DHT22;53063;39.614;8.814;2023-04-24T08:05:30;20.20;78.50
66271;DHT22;53063;39.614;8.814;2023-04-24T08:07:56;20.20;83.70
66271;DHT22;53063;39.614;8.814;2023-04-24T08:10:22;21.00;81.10
66271;DHT22;53063;39.614;8.814;2023-04-24T08:12:48;21.70;80.20
66271;DHT22;53063;39.614;8.814;2023-04-24T08:15:15;21.20;78.80
66271;DHT22;53063;39.614;8.814;2023-04-24T08:17:40;21.40;76.80
66271;DHT22;53063;39.614;8.814;2023-04-24T08:20:10;20.50;78.10
66271;DHT22;53063;39.614;8.814;2023-04-24T08:22:39;20.70;77.80
66271;DHT22;53063;39.614;8.814;2023-04-24T08:25:06;21.40;75.40
66271;DHT22;53063;39.614;8.814;2023-04-24T08:27:32;21.50;72.00
66271;DHT22;53063;39.614;8.814;2023-04-24T08:29:58;22.00;73.10
66271;DHT22;53063;39.614;8.814;2023-04-24T08:32:27;22.00;72.00
66271;DHT22;53063;39.614;8.814;2023-04-24T08:34:59;21.50;72.20
66271;DHT22;53063;39.614;8.814;2023-04-24T08:37:27;21.70;71.80
66271;DHT22;53063;39.614;8.814;2023-04-24T08:39:53;22.50;70.50
66271;DHT22;53063;39.614;8.814;2023-04-24T08:42:19;22.30;69.10
66271;DHT22;53063;39.614;8.814;2023-04-24T08:44:48;22.10;67.80
66271;DHT22;53063;39.614;8.814;2023-04-24T08:47:15;21.50;70.30
66271;DHT22;53063;39.614;8.814;2023-04-24T08:49:42;22.10;71.60
66271;DHT22;53063;39.614;8.814;2023-04-24T08:52:09;22.80;68.80
66271;DHT22;53063;39.614;8.814;2023-04-24T08:54:35;23.00;69.20
66271;DHT22;53063;39.614;8.814;2023-04-24T08:57:02;22.60;69.00
66271;DHT22;53063;39.614;8.814;2023-04-24T08:59:30;22.90;68.10
66271;DHT22;53063;39.614;8.814;2023-04-24T09:01:57;22.10;68.50
66271;DHT22;53063;39.614;8.814;2023-04-24T09:04:24;22.40;66.20
66271;DHT22;53063;39.614;8.814;2023-04-24T09:06:55;22.80;66.50
66271;DHT22;53063;39.614;8.814;2023-04-24T09:09:21;23.10;63.30
66271;DHT22;53063;39.614;8.814;2023-04-24T09:11:50;23.00;64.40
66271;DHT22;53063;39.614;8.814;2023-04-24T09:14:17;22.80;63.20
66271;DHT22;53063;39.614;8.814;2023-04-24T09:16:43;23.10;62.40
66271;DHT22;53063;39.614;8.814;2023-04-24T09:19:09;23.60;60.80
66271;DHT22;53063;39.614;8.814;2023-04-24T09:21:35;23.00;63.70
66271;DHT22;53063;39.614;8.814;2023-04-24T09:24:04;22.70;62.50
66271;DHT22;53063;39.614;8.814;2023-04-24T09:26:32;22.60;63.00
66271;DHT22;53063;39.614;8.814;2023-04-24T09:29:01;23.10;61.20
66271;DHT22;53063;39.614;8.814;2023-04-24T09:31:29;23.20;59.40
66271;DHT22;53063;39.614;8.814;2023-04-24T09:34:00;22.60;61.50
66271;DHT22;53063;39.614;8.814;2023-04-24T09:36:33;23.30;60.70
66271;DHT22;53063;39.614;8.814;2023-04-24T09:39:01;22.70;60.90
66271;DHT22;53063;39.614;8.814;2023-04-24T09:41:28;23.30;60.30
66271;DHT22;53063;39.614;8.814;2023-04-24T09:44:09;23.80;58.20
66271;DHT22;53063;39.614;8.814;2023-04-24T09:46:36;23.90;58.20
66271;DHT22;53063;39.614;8.814;2023-04-24T09:49:10;24.50;56.00
66271;DHT22;53063;39.614;8.814;2023-04-24T09:51:37;23.70;58.10
66271;DHT22;53063;39.614;8.814;2023-04-24T09:54:04;24.20;56.90
66271;DHT22;53063;39.614;8.814;2023-04-24T09:56:36;23.80;57.00
66271;DHT22;53063;39.614;8.814;2023-04-24T09:59:07;24.30;57.70
66271;DHT22;53063;39.614;8.814;2023-04-24T10:01:34;24.70;55.40
66271;DHT22;53063;39.614;8.814;2023-04-24T10:04:00;24.30;56.60
66271;DHT22;53063;39.614;8.814;2023-04-24T10:06:36;24.30;54.80
66271;DHT22;53063;39.614;8.814;2023-04-24T10:09:02;24.50;54.80
66271;DHT22;53063;39.614;8.814;2023-04-24T10:11:29;24.70;54.40
66271;DHT22;53063;39.614;8.814;2023-04-24T10:13:56;23.70;54.70
66271;DHT22;53063;39.614;8.814;2023-04-24T10:16:23;24.10;55.30
66271;DHT22;53063;39.614;8.814;2023-04-24T10:18:49;23.50;56.30
66271;DHT22;53063;39.614;8.814;2023-04-24T10:21:17;23.00;57.10
66271;DHT22;53063;39.614;8.814;2023-04-24T10:23:43;24.10;55.90
66271;DHT22;53063;39.614;8.814;2023-04-24T10:26:12;24.70;55.40
66271;DHT22;53063;39.614;8.814;2023-04-24T10:28:45;24.90;52.50
66271;DHT22;53063;39.614;8.814;2023-04-24T10:31:13;25.10;51.60
66271;DHT22;53063;39.614;8.814;2023-04-24T10:33:41;25.30;51.60
66271;DHT22;53063;39.614;8.814;2023-04-24T10:36:09;25.30;51.30
66271;DHT22;53063;39.614;8.814;2023-04-24T10:38:37;25.20;51.60
66271;DHT22;53063;39.614;8.814;2023-04-24T10:41:09;25.20;51.40
66271;DHT22;53063;39.614;8.814;2023-04-24T10:43:35;25.00;52.60
66271;DHT22;53063;39.614;8.814;2023-04-24T10:46:05;24.30;53.30
66271;DHT22;53063;39.614;8.814;2023-04-24T10:48:32;24.50;53.20
66271;DHT22;53063;39.614;8.814;2023-04-24T10:50:58;24.90;53.00
66271;DHT22;53063;39.614;8.814;2023-04-24T10:53:27;24.80;52.20
66271;DHT22;53063;39.614;8.814;2023-04-24T10:56:07;24.90;51.50
66271;DHT22;53063;39.614;8.814;2023-04-24T10:58:40;25.30;50.90
66271;DHT22;53063;39.614;8.814;2023-04-24T11:01:09;25.70;51.40
66271;DHT22;53063;39.614;8.814;2023-04-24T11:03:55;25.10;50.30
66271;DHT22;53063;39.614;8.814;2023-04-24T11:06:29;25.00;51.40
66271;DHT22;53063;39.614;8.814;2023-04-24T11:09:07;25.10;51.60
66271;DHT22;53063;39.614;8.814;2023-04-24T11:11:35;24.50;51.10
66271;DHT22;53063;39.614;8.814;2023-04-24T11:14:09;24.80;52.20
66271;DHT22;53063;39.614;8.814;2023-04-24T11:17:04;24.60;52.40
66271;DHT22;53063;39.614;8.814;2023-04-24T11:19:30;25.20;51.70
66271;DHT22;53063;39.614;8.814;2023-04-24T11:22:01;25.10;50.70
66271;DHT22;53063;39.614;8.814;2023-04-24T11:29:58;25.40;50.20
66271;DHT22;53063;39.614;8.814;2023-04-24T11:32:42;25.10;50.40
66271;DHT22;53063;39.614;8.814;2023-04-24T11:35:20;25.40;49.50
66271;DHT22;53063;39.614;8.814;2023-04-24T11:37:49;25.60;49.40
66271;DHT22;53063;39.614;8.814;2023-04-24T11:40:17;25.10;49.40
66271;DHT22;53063;39.614;8.814;2023-04-24T11:42:49;25.10;50.10
66271;DHT22;53063;39.614;8.814;2023-04-24T11:45:24;25.60;49.40
66271;DHT22;53063;39.614;8.814;2023-04-24T11:47:50;24.80;50.20
66271;DHT22;53063;39.614;8.814;2023-04-24T11:50:18;24.90;49.50
66271;DHT22;53063;39.614;8.814;2023-04-24T11:52:46;23.60;52.70
66271;DHT22;53063;39.614;8.814;2023-04-24T11:57:55;25.40;50.40
66271;DHT22;53063;39.614;8.814;2023-04-24T12:00:28;25.50;49.50
66271;DHT22;53063;39.614;8.814;2023-04-24T12:03:10;25.50;49.90
66271;DHT22;53063;39.614;8.814;2023-04-24T12:05:37;25.70;49.50
66271;DHT22;53063;39.614;8.814;2023-04-24T12:08:03;25.90;49.10
66271;DHT22;53063;39.614;8.814;2023-04-24T12:10:30;25.70;49.00
66271;DHT22;53063;39.614;8.814;2023-04-24T12:12:57;25.40;49.90
66271;DHT22;53063;39.614;8.814;2023-04-24T12:15:24;25.20;50.10
66271;DHT22;53063;39.614;8.814;2023-04-24T12:17:51;25.40;49.20
66271;DHT22;53063;39.614;8.814;2023-04-24T12:20:24;25.20;48.30
66271;DHT22;53063;39.614;8.814;2023-04-24T12:22:52;25.20;48.90
66271;DHT22;53063;39.614;8.814;2023-04-24T12:25:26;25.30;48.00
66271;DHT22;53063;39.614;8.814;2023-04-24T12:28:11;25.10;48.30
66271;DHT22;53063;39.614;8.814;2023-04-24T12:30:42;25.30;47.20
66271;DHT22;53063;39.614;8.814;2023-04-24T12:33:10;24.70;48.20
66271;DHT22;53063;39.614;8.814;2023-04-24T12:35:36;25.30;47.40
66271;DHT22;53063;39.614;8.814;2023-04-24T12:38:10;25.30;47.80
66271;DHT22;53063;39.614;8.814;2023-04-24T12:40:38;25.40;46.70
66271;DHT22;53063;39.614;8.814;2023-04-24T12:43:22;25.50;47.10
66271;DHT22;53063;39.614;8.814;2023-04-24T12:45:48;25.30;47.50
66271;DHT22;53063;39.614;8.814;2023-04-24T12:48:14;25.10;47.50
66271;DHT22;53063;39.614;8.814;2023-04-24T12:50:40;25.00;47.20
66271;DHT22;53063;39.614;8.814;2023-04-24T12:53:08;25.00;47.10
66271;DHT22;53063;39.614;8.814;2023-04-24T12:55:34;25.10;47.10
66271;DHT22;53063;39.614;8.814;2023-04-24T12:58:00;25.00;47.40
66271;DHT22;53063;39.614;8.814;2023-04-24T13:00:29;24.70;46.80
66271;DHT22;53063;39.614;8.814;2023-04-24T13:02:55;24.50;47.20
66271;DHT22;53063;39.614;8.814;2023-04-24T13:05:21;24.60;47.70
66271;DHT22;53063;39.614;8.814;2023-04-24T13:07:47;24.90;47.30
66271;DHT22;53063;39.614;8.814;2023-04-24T13:10:13;25.00;46.70
66271;DHT22;53063;39.614;8.814;2023-04-24T13:12:39;24.70;47.90
66271;DHT22;53063;39.614;8.814;2023-04-24T13:15:06;24.50;47.40
66271;DHT22;53063;39.614;8.814;2023-04-24T13:17:33;24.30;47.40
66271;DHT22;53063;39.614;8.814;2023-04-24T13:19:58;24.20;47.50
66271;DHT22;53063;39.614;8.814;2023-04-24T13:22:24;24.40;47.40
66271;DHT22;53063;39.614;8.814;2023-04-24T13:24:50;24.40;47.30
66271;DHT22;53063;39.614;8.814;2023-04-24T13:27:17;24.40;47.50
66271;DHT22;53063;39.614;8.814;2023-04-24T13:29:43;24.30;47.40
66271;DHT22;53063;39.614;8.814;2023-04-24T13:32:09;24.20;47.90
66271;DHT22;53063;39.614;8.814;2023-04-24T13:34:35;24.00;48.40
66271;DHT22;53063;39.614;8.814;2023-04-24T13:37:02;23.70;48.20
66271;DHT22;53063;39.614;8.814;2023-04-24T13:39:33;23.70;49.40
66271;DHT22;53063;39.614;8.814;2023-04-24T13:41:59;24.00;48.50
66271;DHT22;53063;39.614;8.814;2023-04-24T13:44:25;23.70;48.20
66271;DHT22;53063;39.614;8.814;2023-04-24T13:46:53;23.30;49.60
66271;DHT22;53063;39.614;8.814;2023-04-24T13:49:21;23.40;49.90
66271;DHT22;53063;39.614;8.814;2023-04-24T13:51:47;23.30;50.00
66271;DHT22;53063;39.614;8.814;2023-04-24T13:54:14;23.60;48.70
66271;DHT22;53063;39.614;8.814;2023-04-24T13:56:40;23.50;48.50
66271;DHT22;53063;39.614;8.814;2023-04-24T13:59:06;23.30;49.10
66271;DHT22;53063;39.614;8.814;2023-04-24T14:01:32;23.40;49.50
66271;DHT22;53063;39.614;8.814;2023-04-24T14:03:58;23.30;48.90
66271;DHT22;53063;39.614;8.814;2023-04-24T14:06:25;23.00;49.70
66271;DHT22;53063;39.614;8.814;2023-04-24T14:08:51;23.40;49.10
66271;DHT22;53063;39.614;8.814;2023-04-24T14:11:18;23.10;48.50
66271;DHT22;53063;39.614;8.814;2023-04-24T14:13:45;22.90;49.80
66271;DHT22;53063;39.614;8.814;2023-04-24T14:16:11;22.90;50.20
66271;DHT22;53063;39.614;8.814;2023-04-24T14:18:37;22.90;49.60
66271;DHT22;53063;39.614;8.814;2023-04-24T14:21:04;22.70;49.90
66271;DHT22;53063;39.614;8.814;2023-04-24T14:23:30;22.60;50.40
66271;DHT22;53063;39.614;8.814;2023-04-24T14:25:57;22.60;50.50
66271;DHT22;53063;39.614;8.814;2023-04-24T14:28:24;22.40;50.40
66271;DHT22;53063;39.614;8.814;2023-04-24T14:30:50;22.40;51.30
66271;DHT22;53063;39.614;8.814;2023-04-24T14:33:16;22.20;51.80
66271;DHT22;53063;39.614;8.814;2023-04-24T14:35:43;22.40;51.90
66271;DHT22;53063;39.614;8.814;2023-04-24T14:38:09;22.50;51.90
66271;DHT22;53063;39.614;8.814;2023-04-24T14:40:35;22.40;51.70
66271;DHT22;53063;39.614;8.814;2023-04-24T14:43:02;22.20;52.20
66271;DHT22;53063;39.614;8.814;2023-04-24T14:45:28;21.90;52.10
66271;DHT22;53063;39.614;8.814;2023-04-24T14:47:54;21.70;52.30
66271;DHT22;53063;39.614;8.814;2023-04-24T14:50:20;21.80;51.60
66271;DHT22;53063;39.614;8.814;2023-04-24T14:52:46;21.80;52.20
66271;DHT22;53063;39.614;8.814;2023-04-24T14:55:12;21.90;51.60
66271;DHT22;53063;39.614;8.814;2023-04-24T14:57:39;21.70;51.00
66271;DHT22;53063;39.614;8.814;2023-04-24T15:00:06;21.80;50.90
66271;DHT22;53063;39.614;8.814;2023-04-24T15:02:34;21.60;51.50
66271;DHT22;53063;39.614;8.814;2023-04-24T15:05:02;21.70;51.80
66271;DHT22;53063;39.614;8.814;2023-04-24T15:07:29;21.80;51.40
66271;DHT22;53063;39.614;8.814;2023-04-24T15:09:56;21.60;51.30
66271;DHT22;53063;39.614;8.814;2023-04-24T15:12:22;21.60;51.40
66271;DHT22;53063;39.614;8.814;2023-04-24T15:14:48;21.70;52.00
66271;DHT22;53063;39.614;8.814;2023-04-24T15:17:14;21.60;52.10
66271;DHT22;53063;39.614;8.814;2023-04-24T15:19:40;21.40;52.20
66271;DHT22;53063;39.614;8.814;2023-04-24T15:22:06;21.20;53.20
66271;DHT22;53063;39.614;8.814;2023-04-24T15:24:32;21.30;53.50
66271;DHT22;53063;39.614;8.814;2023-04-24T15:26:59;21.50;53.70
66271;DHT22;53063;39.614;8.814;2023-04-24T15:29:25;21.20;54.50
66271;DHT22;53063;39.614;8.814;2023-04-24T15:31:52;21.10;55.10
66271;DHT22;53063;39.614;8.814;2023-04-24T15:34:18;21.50;55.20
66271;DHT22;53063;39.614;8.814;2023-04-24T15:36:44;21.40;55.10
66271;DHT22;53063;39.614;8.814;2023-04-24T15:39:10;21.40;54.90
66271;DHT22;53063;39.614;8.814;2023-04-24T15:41:36;21.20;54.70